createdAt,value
2023-04-11T00:01:39.972Z,24.40
2023-04-11T00:04:11.276Z,20.00
2023-04-11T00:06:39.492Z,21.00
2023-04-11T00:09:07.588Z,20.10
2023-04-11T00:11:35.721Z,21.20
2023-04-11T00:14:05.653Z,21.60
2023-04-11T00:16:34.113Z,22.90
2023-04-11T00:19:02.378Z,21.10
2023-04-11T00:21:30.520Z,23.50
2023-04-11T00:23:59.011Z,23.20
2023-04-11T00:26:27.964Z,20.60
2023-04-11T00:28:56.210Z,22.00
2023-04-11T00:31:24.792Z,20.60
2023-04-11T00:33:52.949Z,21.80
2023-04-11T00:36:21.412Z,21.20
2023-04-11T00:38:49.545Z,19.00
2023-04-11T00:41:18.078Z,20.00
2023-04-11T00:43:47.315Z,19.90
2023-04-11T00:46:17.281Z,18.80
2023-04-11T00:48:45.741Z,21.10
2023-04-11T00:51:15.729Z,18.70
2023-04-11T00:53:45.882Z,20.60
2023-04-11T00:56:14.292Z,17.40
2023-04-11T00:58:42.938Z,18.70
2023-04-11T01:01:11.245Z,23.10
2023-04-11T01:03:40.144Z,18.40
2023-04-11T01:06:14.753Z,19.70
2023-04-11T01:08:44.046Z,17.80
2023-04-11T01:11:13.160Z,21.00
2023-04-11T01:13:42.356Z,16.60
2023-04-11T01:16:11.326Z,18.70
2023-04-11T01:18:39.549Z,17.60
2023-04-11T01:21:09.727Z,17.00
2023-04-11T01:23:38.295Z,18.10
2023-04-11T01:26:06.773Z,17.60
2023-04-11T01:28:35.445Z,15.30
2023-04-11T01:31:04.209Z,17.60
2023-04-11T01:33:32.681Z,17.30
2023-04-11T01:36:01.516Z,16.80
2023-04-11T01:38:29.815Z,17.50
2023-04-11T01:40:59.086Z,15.70
2023-04-11T01:43:27.456Z,16.60
2023-04-11T01:45:55.969Z,15.30
2023-04-11T01:48:24.235Z,18.40
2023-04-11T01:50:53.204Z,17.60
2023-04-11T01:53:21.327Z,17.30
2023-04-11T01:55:49.403Z,17.50
2023-04-11T01:58:17.550Z,16.90
2023-04-11T02:00:46.119Z,15.50
2023-04-11T02:03:14.583Z,21.10
2023-04-11T02:05:42.974Z,17.20
2023-04-11T02:08:11.473Z,16.20
2023-04-11T02:10:39.602Z,14.60
2023-04-11T02:13:07.782Z,15.40
2023-04-11T02:15:35.964Z,16.20
2023-04-11T02:18:04.307Z,18.60
2023-04-11T02:20:32.739Z,18.40
2023-04-11T02:23:04.454Z,15.70
2023-04-11T02:25:32.990Z,17.60
2023-04-11T02:28:01.349Z,18.60
2023-04-11T02:30:29.600Z,18.20
2023-04-11T02:32:57.742Z,16.40
2023-04-11T02:35:26.406Z,14.40
2023-04-11T02:37:54.523Z,15.20
2023-04-11T02:40:22.602Z,14.50
2023-04-11T02:42:50.740Z,15.20
2023-04-11T02:45:19.265Z,16.20
2023-04-11T02:47:47.669Z,15.60
2023-04-11T02:50:16.384Z,15.50
2023-04-11T02:52:49.460Z,14.60
2023-04-11T02:55:19.784Z,16.70
2023-04-11T02:57:48.013Z,16.20
2023-04-11T03:00:20.121Z,16.00
2023-04-11T03:02:57.283Z,15.40
2023-04-11T03:05:26.265Z,17.50
2023-04-11T03:07:55.006Z,14.30
2023-04-11T03:10:23.517Z,15.50
2023-04-11T03:12:52.009Z,17.90
2023-04-11T03:15:20.446Z,16.10
2023-04-11T03:17:48.723Z,16.10
2023-04-11T03:20:19.924Z,14.60
2023-04-11T03:22:53.671Z,13.50
2023-04-11T03:25:22.646Z,17.50
2023-04-11T03:27:51.351Z,15.00
2023-04-11T03:30:19.511Z,14.60
2023-04-11T03:32:49.041Z,16.00
2023-04-11T03:35:18.866Z,13.80
2023-04-11T03:37:48.188Z,15.90
2023-04-11T03:40:18.729Z,15.50
2023-04-11T03:42:50.641Z,17.70
2023-04-11T03:45:21.679Z,14.70
2023-04-11T03:47:50.805Z,16.40
2023-04-11T03:50:20.211Z,16.40
2023-04-11T03:52:49.683Z,15.20
2023-04-11T03:55:18.741Z,15.20
2023-04-11T03:57:46.949Z,18.30
2023-04-11T04:00:15.684Z,14.50
2023-04-11T04:02:47.952Z,16.10
2023-04-11T04:05:16.894Z,15.50
2023-04-11T04:07:45.221Z,16.90
2023-04-11T04:10:20.258Z,18.00
2023-04-11T04:12:52.421Z,14.80
2023-04-11T04:15:34.058Z,18.20
2023-04-11T04:18:03.046Z,17.70
2023-04-11T04:20:57.390Z,15.30
2023-04-11T04:23:26.149Z,16.30
2023-04-11T04:26:03.397Z,15.00
2023-04-11T04:28:33.599Z,17.90
2023-04-11T04:31:04.191Z,18.20
2023-04-11T04:33:50.760Z,21.20
2023-04-11T04:36:25.155Z,15.10
2023-04-11T04:38:53.489Z,15.50
2023-04-11T04:41:23.727Z,16.40
2023-04-11T04:43:58.594Z,16.00
2023-04-11T04:46:38.552Z,18.50
2023-04-11T04:49:07.904Z,17.00
2023-04-11T04:51:40.351Z,14.50
2023-04-11T04:54:08.797Z,14.20
2023-04-11T04:56:37.956Z,13.50
2023-04-11T04:59:06.571Z,16.80
2023-04-11T05:01:35.359Z,16.90
2023-04-11T05:04:05.985Z,15.70
2023-04-11T05:07:00.763Z,17.20
2023-04-11T05:09:29.336Z,15.90
2023-04-11T05:12:07.293Z,14.20
2023-04-11T05:14:37.069Z,14.20
2023-04-11T05:17:05.445Z,19.20
2023-04-11T05:19:33.685Z,14.40
2023-04-11T05:22:01.959Z,15.10
2023-04-11T05:24:31.724Z,15.70
2023-04-11T05:27:00.745Z,12.10
2023-04-11T05:29:30.157Z,15.20
2023-04-11T05:31:58.405Z,14.30
2023-04-11T05:34:31.536Z,14.50
2023-04-11T05:36:59.724Z,13.60
2023-04-11T05:39:27.953Z,13.40
2023-04-11T05:41:57.776Z,14.80
2023-04-11T05:44:26.162Z,13.00
2023-04-11T05:46:54.304Z,14.30
2023-04-11T05:49:22.440Z,12.70
2023-04-11T05:51:50.686Z,14.00
2023-04-11T05:54:33.796Z,15.90
2023-04-11T05:57:02.886Z,14.30
2023-04-11T05:59:32.000Z,13.90
2023-04-11T06:02:00.468Z,13.70
2023-04-11T06:04:28.805Z,11.90
2023-04-11T06:06:57.112Z,12.70
2023-04-11T06:09:25.513Z,14.40
2023-04-11T06:11:54.917Z,12.30
2023-04-11T06:14:23.017Z,16.70
2023-04-11T06:16:51.609Z,15.90
2023-04-11T06:19:19.741Z,15.90
2023-04-11T06:21:48.042Z,13.40
2023-04-11T06:24:18.642Z,13.40
2023-04-11T06:26:46.815Z,12.90
2023-04-11T06:29:14.903Z,12.70
2023-04-11T06:31:43.116Z,13.60
2023-04-11T06:34:11.831Z,16.40
2023-04-11T06:36:42.775Z,15.10
2023-04-11T06:39:11.152Z,14.50
2023-04-11T06:41:39.289Z,13.40
2023-04-11T06:44:07.439Z,10.20
2023-04-11T06:46:35.741Z,12.80
2023-04-11T06:49:03.992Z,9.90
2023-04-11T06:51:32.082Z,15.20
2023-04-11T06:54:00.519Z,13.20
2023-04-11T06:56:29.097Z,13.30
2023-04-11T06:58:57.275Z,13.00
2023-04-11T07:01:34.048Z,12.60
2023-04-11T07:04:02.829Z,11.90
2023-04-11T07:06:31.929Z,10.70
2023-04-11T07:09:01.541Z,10.90
2023-04-11T07:11:29.966Z,14.10
2023-04-11T07:14:02.294Z,11.80
2023-04-11T07:16:30.753Z,15.40
2023-04-11T07:19:00.092Z,11.90
2023-04-11T07:21:28.746Z,11.30
2023-04-11T07:23:57.220Z,12.30
2023-04-11T07:26:27.313Z,12.40
2023-04-11T07:28:55.488Z,10.40
2023-04-11T07:31:23.590Z,11.20
2023-04-11T07:33:52.114Z,9.80
2023-04-11T07:36:20.419Z,10.70
2023-04-11T07:38:48.719Z,16.20
2023-04-11T07:41:16.846Z,10.60
2023-04-11T07:43:45.090Z,11.40
2023-04-11T07:46:15.357Z,11.80
2023-04-11T07:48:43.725Z,11.30
2023-04-11T07:51:12.309Z,12.30
2023-04-11T07:53:40.482Z,14.90
2023-04-11T07:56:09.018Z,10.40
2023-04-11T07:58:37.205Z,12.50
2023-04-11T08:01:06.255Z,12.40
2023-04-11T08:03:34.486Z,10.20
2023-04-11T08:06:02.912Z,9.70
2023-04-11T08:08:31.145Z,10.80
2023-04-11T08:10:59.330Z,9.90
2023-04-11T08:13:27.588Z,9.80
2023-04-11T08:15:55.761Z,8.70
2023-04-11T08:18:24.344Z,13.80
2023-04-11T08:20:53.161Z,12.20
2023-04-11T08:23:21.794Z,15.80
2023-04-11T08:25:49.942Z,11.30
2023-04-11T08:28:18.340Z,10.50
2023-04-11T08:30:46.508Z,8.60
2023-04-11T08:33:15.818Z,8.60
2023-04-11T08:35:43.996Z,8.90
2023-04-11T08:38:12.274Z,8.10
2023-04-11T08:40:40.354Z,9.80
2023-04-11T08:43:12.496Z,7.60
2023-04-11T08:45:41.716Z,13.40
2023-04-11T08:48:12.381Z,11.00
2023-04-11T08:50:42.426Z,9.00
2023-04-11T08:53:10.861Z,9.60
2023-04-11T08:55:48.620Z,9.00
2023-04-11T08:58:17.857Z,9.40
2023-04-11T09:00:46.388Z,9.00
2023-04-11T09:03:16.938Z,10.40
2023-04-11T09:05:46.868Z,9.10
2023-04-11T09:08:16.533Z,11.50
2023-04-11T09:10:46.373Z,8.70
2023-04-11T09:13:28.329Z,11.20
2023-04-11T09:16:13.296Z,8.20
2023-04-11T09:18:43.467Z,7.80
2023-04-11T09:21:14.604Z,10.80
2023-04-11T09:23:42.925Z,12.50
2023-04-11T09:26:25.073Z,8.10
2023-04-11T09:28:53.997Z,9.50
2023-04-11T09:31:38.463Z,9.20
2023-04-11T09:34:06.958Z,9.30
2023-04-11T09:36:35.405Z,10.70
2023-04-11T09:39:18.159Z,7.70
2023-04-11T09:41:46.521Z,10.20
2023-04-11T09:44:14.711Z,8.40
2023-04-11T09:47:00.249Z,7.80
2023-04-11T09:49:30.723Z,5.40
2023-04-11T09:51:59.738Z,10.10
2023-04-11T09:54:28.845Z,7.00
2023-04-11T09:56:58.522Z,9.70
2023-04-11T09:59:27.547Z,8.20
2023-04-11T10:01:57.761Z,6.60
2023-04-11T10:04:28.218Z,10.30
2023-04-11T10:07:23.617Z,9.90
2023-04-11T10:09:51.918Z,4.90
2023-04-11T10:12:33.955Z,7.40
2023-04-11T10:15:08.405Z,5.10
2023-04-11T10:17:36.900Z,7.00
2023-04-11T10:20:49.840Z,6.30
2023-04-11T10:23:18.119Z,5.60
2023-04-11T10:25:55.792Z,7.60
2023-04-11T10:28:38.841Z,7.30
2023-04-11T10:31:09.166Z,6.80
2023-04-11T10:33:38.630Z,5.90
2023-04-11T10:36:10.522Z,9.20
2023-04-11T10:38:42.020Z,7.00
2023-04-11T10:41:34.158Z,8.00
2023-04-11T10:44:24.941Z,6.30
2023-04-11T10:46:55.418Z,7.00
2023-04-11T10:49:35.708Z,11.70
2023-04-11T10:52:18.364Z,7.70
2023-04-11T10:54:47.006Z,7.40
2023-04-11T10:57:15.672Z,6.80
2023-04-11T10:59:49.922Z,8.50
2023-04-11T11:02:22.036Z,10.60
2023-04-11T11:04:51.194Z,5.70
2023-04-11T11:07:19.410Z,6.10
2023-04-11T11:09:49.464Z,7.00
2023-04-11T11:12:17.659Z,5.80
2023-04-11T11:14:47.122Z,6.10
2023-04-11T11:17:17.138Z,7.90
2023-04-11T11:19:46.402Z,6.50
2023-04-11T11:22:19.261Z,8.60
2023-04-11T11:24:47.414Z,10.50
2023-04-11T11:27:23.588Z,5.80
2023-04-11T11:29:53.078Z,6.60
2023-04-11T11:32:29.717Z,8.90
2023-04-11T11:34:58.917Z,5.00
2023-04-11T11:37:27.180Z,7.40
2023-04-11T11:39:55.534Z,7.30
2023-04-11T11:42:23.724Z,5.00
2023-04-11T11:44:51.835Z,6.60
2023-04-11T11:47:20.028Z,6.10
2023-04-11T11:49:52.132Z,8.50
2023-04-11T11:52:40.736Z,5.20
2023-04-11T11:55:28.938Z,6.80
2023-04-11T11:58:02.158Z,6.50
2023-04-11T12:00:37.870Z,6.80
2023-04-11T12:03:10.145Z,8.40
2023-04-11T12:05:38.755Z,9.00
2023-04-11T12:08:07.534Z,7.20
2023-04-11T12:10:45.454Z,10.90
2023-04-11T12:13:14.751Z,5.90
2023-04-11T12:15:51.062Z,8.60
2023-04-11T12:18:24.533Z,4.80
2023-04-11T12:20:52.732Z,4.20
2023-04-11T12:23:21.656Z,6.80
2023-04-11T12:25:49.959Z,7.60
2023-04-11T12:28:18.104Z,7.10
2023-04-11T12:30:46.352Z,5.90
2023-04-11T12:33:14.450Z,8.30
2023-04-11T12:35:42.583Z,4.90
2023-04-11T12:38:13.248Z,5.00
2023-04-11T12:40:43.292Z,5.00
2023-04-11T12:43:11.497Z,5.80
2023-04-11T12:45:39.689Z,5.60
2023-04-11T12:48:08.197Z,4.80
2023-04-11T12:50:36.352Z,5.40
2023-04-11T12:53:04.426Z,5.10
2023-04-11T12:55:34.756Z,8.30
2023-04-11T12:58:03.220Z,6.00
2023-04-11T13:00:31.367Z,5.00
2023-04-11T13:02:59.863Z,6.70
2023-04-11T13:05:28.343Z,7.30
2023-04-11T13:07:56.695Z,5.90
2023-04-11T13:10:24.881Z,7.60
2023-04-11T13:12:58.500Z,7.90
2023-04-11T13:15:27.304Z,10.90
2023-04-11T13:17:55.942Z,7.50
2023-04-11T13:20:24.131Z,8.30
2023-04-11T13:22:52.220Z,11.60
2023-04-11T13:25:20.488Z,7.20
2023-04-11T13:27:48.647Z,7.20
2023-04-11T13:30:16.814Z,7.70
2023-04-11T13:32:44.941Z,10.50
2023-04-11T13:35:13.196Z,8.00
2023-04-11T13:37:42.042Z,5.70
2023-04-11T13:40:12.339Z,8.20
2023-04-11T13:42:41.396Z,5.90
2023-04-11T13:45:10.404Z,8.90
2023-04-11T13:47:40.029Z,7.70
2023-04-11T13:50:10.592Z,5.90
2023-04-11T13:52:39.948Z,8.30
2023-04-11T13:55:08.474Z,13.80
2023-04-11T13:57:36.584Z,6.90
2023-04-11T14:00:10.099Z,7.40
2023-04-11T14:02:40.139Z,9.70
2023-04-11T14:05:09.297Z,9.30
2023-04-11T14:07:37.692Z,11.10
2023-04-11T14:10:06.478Z,9.20
2023-04-11T14:12:34.639Z,6.40
2023-04-11T14:15:03.430Z,7.00
2023-04-11T14:17:32.124Z,7.20
2023-04-11T14:20:01.010Z,8.90
2023-04-11T14:22:29.579Z,8.00
2023-04-11T14:24:57.900Z,9.60
2023-04-11T14:27:26.036Z,7.40
2023-04-11T14:29:54.291Z,6.20
2023-04-11T14:32:22.472Z,5.50
2023-04-11T14:34:52.796Z,8.60
2023-04-11T14:37:20.963Z,9.00
2023-04-11T14:39:49.098Z,6.50
2023-04-11T14:42:17.265Z,6.90
2023-04-11T14:44:45.402Z,6.90
2023-04-11T14:47:13.562Z,5.70
2023-04-11T14:49:41.762Z,7.30
2023-04-11T14:52:09.929Z,5.10
2023-04-11T14:54:38.056Z,6.40
2023-04-11T14:57:06.261Z,9.90
2023-04-11T14:59:34.557Z,5.40
2023-04-11T15:02:03.275Z,5.60
2023-04-11T15:04:31.770Z,6.70
2023-04-11T15:07:00.065Z,6.40
2023-04-11T15:09:28.302Z,5.90
2023-04-11T15:11:57.121Z,9.10
2023-04-11T15:14:29.574Z,9.20
2023-04-11T15:16:57.798Z,7.20
2023-04-11T15:19:26.613Z,9.20
2023-04-11T15:21:55.262Z,6.80
2023-04-11T15:24:24.532Z,4.90
2023-04-11T15:26:53.797Z,4.50
2023-04-11T15:29:22.105Z,5.50
2023-04-11T15:31:50.451Z,4.90
2023-04-11T15:34:18.701Z,6.40
2023-04-11T15:36:47.193Z,5.60
2023-04-11T15:39:16.069Z,4.70
2023-04-11T15:41:44.340Z,6.10
2023-04-11T15:44:12.454Z,6.30
2023-04-11T15:46:41.100Z,7.60
2023-04-11T15:49:09.278Z,5.60
2023-04-11T15:51:37.910Z,3.80
2023-04-11T15:54:07.438Z,4.70
2023-04-11T15:56:36.392Z,6.20
2023-04-11T15:59:04.473Z,7.10
2023-04-11T16:01:32.662Z,4.60
2023-04-11T16:04:01.087Z,4.40
2023-04-11T16:06:29.459Z,5.90
2023-04-11T16:08:57.561Z,5.70
2023-04-11T16:11:25.997Z,8.00
2023-04-11T16:13:54.486Z,4.40
2023-04-11T16:16:23.020Z,6.60
2023-04-11T16:18:52.385Z,7.90
2023-04-11T16:21:20.839Z,5.50
2023-04-11T16:23:48.979Z,5.90
2023-04-11T16:26:19.265Z,6.50
2023-04-11T16:28:49.025Z,5.90
2023-04-11T16:31:22.060Z,5.10
2023-04-11T16:33:52.272Z,5.90
2023-04-11T16:36:20.704Z,6.30
2023-04-11T16:38:52.077Z,5.40
2023-04-11T16:41:20.277Z,6.00
2023-04-11T16:43:48.640Z,5.70
2023-04-11T16:46:17.508Z,9.00
2023-04-11T16:48:45.630Z,7.90
2023-04-11T16:51:13.817Z,5.90
2023-04-11T16:53:41.972Z,8.20
2023-04-11T16:56:10.252Z,5.90
2023-04-11T16:58:38.535Z,7.20
2023-04-11T17:01:07.032Z,6.10
2023-04-11T17:03:35.469Z,4.10
2023-04-11T17:06:04.297Z,7.20
2023-04-11T17:08:32.584Z,8.30
2023-04-11T17:11:07.229Z,8.70
2023-04-11T17:13:36.266Z,8.00
2023-04-11T17:16:06.259Z,7.70
2023-04-11T17:18:38.375Z,10.10
2023-04-11T17:21:06.798Z,8.90
2023-04-11T17:23:43.141Z,7.70
2023-04-11T17:26:12.533Z,7.60
2023-04-11T17:28:41.040Z,11.80
2023-04-11T17:31:13.656Z,10.60
2023-04-11T17:33:42.469Z,10.40
2023-04-11T17:36:13.867Z,8.80
2023-04-11T17:38:45.752Z,10.90
2023-04-11T17:41:15.308Z,8.80
2023-04-11T17:43:44.115Z,10.10
2023-04-11T17:46:13.051Z,8.70
2023-04-11T17:48:42.161Z,9.00
2023-04-11T17:51:10.611Z,9.00
2023-04-11T17:53:38.817Z,10.90
2023-04-11T17:56:07.851Z,8.60
2023-04-11T17:58:36.215Z,9.90
2023-04-11T18:01:09.585Z,12.20
2023-04-11T18:03:39.364Z,10.60
2023-04-11T18:06:07.996Z,11.70
2023-04-11T18:08:49.962Z,10.40
2023-04-11T18:11:19.783Z,12.30
2023-04-11T18:13:50.020Z,11.60
2023-04-11T18:16:19.194Z,12.20
2023-04-11T18:18:48.239Z,10.60
2023-04-11T18:21:16.998Z,9.90
2023-04-11T18:23:45.392Z,11.30
2023-04-11T18:26:13.485Z,11.80
2023-04-11T18:28:41.767Z,11.30
2023-04-11T18:31:10.223Z,11.10
2023-04-11T18:33:43.107Z,11.60
2023-04-11T18:36:13.784Z,10.40
2023-04-11T18:38:44.006Z,11.10
2023-04-11T18:41:12.248Z,10.30
2023-04-11T18:43:40.865Z,11.20
2023-04-11T18:46:09.758Z,9.90
2023-04-11T18:48:38.194Z,11.40
2023-04-11T18:51:06.817Z,9.70
2023-04-11T18:53:36.899Z,8.10
2023-04-11T18:56:06.141Z,8.90
2023-04-11T18:58:36.226Z,7.70
2023-04-11T19:01:14.615Z,7.60
2023-04-11T19:03:44.450Z,8.30
2023-04-11T19:06:13.195Z,10.40
2023-04-11T19:08:42.074Z,8.10
2023-04-11T19:11:10.406Z,11.20
2023-04-11T19:13:38.750Z,9.60
2023-04-11T19:16:07.315Z,9.10
2023-04-11T19:18:35.618Z,8.10
2023-04-11T19:21:03.926Z,8.30
2023-04-11T19:23:32.387Z,9.80
2023-04-11T19:26:00.904Z,12.00
2023-04-11T19:28:29.011Z,9.70
2023-04-11T19:30:57.169Z,9.40
2023-04-11T19:33:26.262Z,8.70
2023-04-11T19:35:54.440Z,8.90
2023-04-11T19:38:22.677Z,9.80
2023-04-11T19:40:50.884Z,8.90
2023-04-11T19:43:19.898Z,8.30
2023-04-11T19:45:48.122Z,8.90
2023-04-11T19:48:16.954Z,12.40
2023-04-11T19:50:45.275Z,9.90
2023-04-11T19:53:13.398Z,8.80
2023-04-11T19:55:41.870Z,8.30
2023-04-11T19:58:10.094Z,9.80
2023-04-11T20:00:38.806Z,8.20
2023-04-11T20:03:09.719Z,8.40
2023-04-11T20:05:38.046Z,9.20
2023-04-11T20:08:06.990Z,7.30
2023-04-11T20:10:37.247Z,8.20
2023-04-11T20:13:05.613Z,8.60
2023-04-11T20:15:33.795Z,7.90
2023-04-11T20:18:02.166Z,8.00
2023-04-11T20:20:33.682Z,8.10
2023-04-11T20:23:05.052Z,7.80
2023-04-11T20:25:34.573Z,11.00
2023-04-11T20:28:02.748Z,12.30
2023-04-11T20:30:30.981Z,9.80
2023-04-11T20:32:59.427Z,10.50
2023-04-11T20:35:27.714Z,9.70
2023-04-11T20:37:56.208Z,10.70
2023-04-11T20:40:24.466Z,10.70
2023-04-11T20:42:52.653Z,10.40
2023-04-11T20:45:22.249Z,10.30
2023-04-11T20:47:53.155Z,9.20
2023-04-11T20:50:21.664Z,9.60
2023-04-11T20:52:53.205Z,11.20
2023-04-11T20:55:21.462Z,11.90
2023-04-11T20:57:49.850Z,8.50
2023-04-11T21:00:19.065Z,9.30
2023-04-11T21:02:50.411Z,8.40
2023-04-11T21:05:22.188Z,8.80
2023-04-11T21:07:50.358Z,9.70
2023-04-11T21:10:21.063Z,8.50
2023-04-11T21:12:51.885Z,8.30
2023-04-11T21:15:21.260Z,7.70
2023-04-11T21:17:50.566Z,8.40
2023-04-11T21:20:19.711Z,9.20
2023-04-11T21:22:49.796Z,7.40
2023-04-11T21:25:18.003Z,9.40
2023-04-11T21:27:46.951Z,8.30
2023-04-11T21:30:15.108Z,7.50
2023-04-11T21:32:43.371Z,7.80
2023-04-11T21:35:12.521Z,7.60
2023-04-11T21:37:40.949Z,8.80
2023-04-11T21:40:09.808Z,7.80
2023-04-11T21:42:38.463Z,9.70
2023-04-11T21:45:07.423Z,10.00
2023-04-11T21:47:35.644Z,8.20
2023-04-11T21:50:04.217Z,7.70
2023-04-11T21:52:32.368Z,9.20
2023-04-11T21:55:00.587Z,7.30
2023-04-11T21:57:28.791Z,12.40
2023-04-11T21:59:57.587Z,11.10
2023-04-11T22:02:26.153Z,11.10
2023-04-11T22:05:05.636Z,12.40
2023-04-11T22:07:48.526Z,12.30
2023-04-11T22:10:24.344Z,10.40
2023-04-11T22:12:54.612Z,14.20
2023-04-11T22:15:24.351Z,12.30
2023-04-11T22:17:56.403Z,11.80
2023-04-11T22:20:25.012Z,11.50
2023-04-11T22:22:53.494Z,11.60
2023-04-11T22:25:22.603Z,12.10
2023-04-11T22:27:54.441Z,12.40
2023-04-11T22:30:23.622Z,13.80
2023-04-11T22:32:54.419Z,11.90
2023-04-11T22:35:25.069Z,17.40
2023-04-11T22:37:55.520Z,16.40
2023-04-11T22:40:24.271Z,16.30
2023-04-11T22:42:52.634Z,14.30
2023-04-11T22:45:22.613Z,15.30
2023-04-11T22:47:54.556Z,15.70
2023-04-11T22:50:23.744Z,14.50
2023-04-11T22:52:51.898Z,17.50
2023-04-11T22:55:21.238Z,13.70
2023-04-11T22:57:49.626Z,14.90
2023-04-11T23:00:18.913Z,15.40
2023-04-11T23:02:47.319Z,14.60
2023-04-11T23:05:16.959Z,14.60
2023-04-11T23:07:45.104Z,15.20
2023-04-11T23:10:15.169Z,15.20
2023-04-11T23:12:44.668Z,14.60
2023-04-11T23:15:12.930Z,14.10
2023-04-11T23:17:41.484Z,15.70
2023-04-11T23:20:13.946Z,15.80
2023-04-11T23:22:43.894Z,15.60
2023-04-11T23:25:15.277Z,17.30
2023-04-11T23:27:44.824Z,18.80
2023-04-11T23:30:14.391Z,17.50
2023-04-11T23:32:43.023Z,19.60
2023-04-11T23:35:11.891Z,16.90
2023-04-11T23:37:41.064Z,18.20
2023-04-11T23:40:11.121Z,17.00
2023-04-11T23:42:41.126Z,16.70
2023-04-11T23:45:10.860Z,20.00
2023-04-11T23:47:39.196Z,17.50
2023-04-11T23:50:08.498Z,17.40
2023-04-11T23:52:36.614Z,16.40
2023-04-11T23:55:05.097Z,19.60
2023-04-11T23:57:33.319Z,16.10
